Time;durP1;ratioP1;P1;durP2;ratioP2;P2;SDS_P1;SDS_P2;PMS_P1;PMS_P2;Temp;Humidity;BMP_temperature;BMP_pressure;BME280_temperature;BME280_humidity;BME280_pressure;Samples;Min_cycle;Max_cycle;Signal;HPM_P1;HPM_P2
2022/10/26 00:01:26;;;;;;;;;;;10.20;99.90;;;;;;5063347;28;19920;-71
2022/10/26 00:03:53;;;;;;;;;;;10.20;99.90;;;;;;5068235;28;19920;-70
2022/10/26 00:06:20;;;;;;;;;;;10.20;99.90;;;;;;5064148;28;19921;-69
2022/10/26 00:08:46;;;;;;;;;;;10.20;99.90;;;;;;5064591;28;19920;-69
2022/10/26 00:11:11;;;;;;;;;;;10.30;99.90;;;;;;5063708;28;19927;-70
2022/10/26 00:13:38;;;;;;;;;;;10.30;99.90;;;;;;5069912;28;19921;-70
2022/10/26 00:16:11;;;;;;;;;;;10.30;99.90;;;;;;5052329;28;19960;-69
2022/10/26 00:18:36;;;;;;;;;;;10.30;99.90;;;;;;5044731;28;20842;-69
2022/10/26 00:21:03;;;;;;;;;;;10.40;99.90;;;;;;5066181;28;20015;-69
2022/10/26 00:23:28;;;;;;;;;;;10.40;99.90;;;;;;5044213;28;19920;-69
2022/10/26 00:25:55;;;;;;;;;;;10.40;99.90;;;;;;5046941;28;19921;-69
2022/10/26 00:28:20;;;;;;;;;;;10.40;99.90;;;;;;5065579;28;20376;-70
2022/10/26 00:30:46;;;;;;;;;;;10.40;99.90;;;;;;5066906;28;20053;-69
2022/10/26 00:33:12;;;;;;;;;;;10.40;99.90;;;;;;5045534;28;19921;-69
2022/10/26 00:35:37;;;;;;;;;;;10.30;99.90;;;;;;5064746;28;19946;-69
2022/10/26 00:38:03;;;;;;;;;;;10.20;99.90;;;;;;5062082;28;20403;-68
2022/10/26 00:40:28;;;;;;;;;;;10.30;99.90;;;;;;5065598;28;19935;-69
2022/10/26 00:42:54;;;;;;;;;;;10.30;99.90;;;;;;5065424;28;20043;-68
2022/10/26 00:45:22;;;;;;;;;;;10.30;99.90;;;;;;5064767;28;19975;-69
2022/10/26 00:47:51;;;;;;;;;;;10.30;99.90;;;;;;5046678;28;19920;-69
2022/10/26 00:50:19;;;;;;;;;;;10.20;99.90;;;;;;5062564;28;19965;-70
2022/10/26 00:52:45;;;;;;;;;;;10.30;99.90;;;;;;5049229;28;19921;-69
2022/10/26 00:55:11;;;;;;;;;;;10.30;99.90;;;;;;5064071;28;19925;-69
2022/10/26 00:57:37;;;;;;;;;;;10.40;99.90;;;;;;5044248;28;19928;-69
2022/10/26 01:00:04;;;;;;;;;;;10.30;99.90;;;;;;5046790;28;20356;-69
2022/10/26 01:02:30;;;;;;;;;;;10.40;99.90;;;;;;5061694;28;19924;-69
2022/10/26 01:04:55;;;;;;;;;;;10.40;99.90;;;;;;5064853;28;19975;-69
2022/10/26 01:07:21;;;;;;;;;;;10.30;99.90;;;;;;5065749;28;19928;-69
2022/10/26 01:09:47;;;;;;;;;;;10.30;99.90;;;;;;5047578;28;20261;-69
2022/10/26 01:12:12;;;;;;;;;;;10.30;99.90;;;;;;5044961;28;20301;-69
2022/10/26 01:14:41;;;;;;;;;;;10.30;99.90;;;;;;5064683;28;19920;-70
2022/10/26 01:17:25;;;;;;;;;;;10.50;99.90;;;;;;5065454;28;20284;-70
2022/10/26 01:20:06;;;;;;;;;;;10.20;99.90;;;;;;5061209;28;19928;-70
2022/10/26 01:22:50;;;;;;;;;;;10.20;99.90;;;;;;5044217;28;19920;-70
2022/10/26 01:25:34;;;;;;;;;;;10.20;99.90;;;;;;5063826;28;19947;-69
2022/10/26 01:28:01;;;;;;;;;;;10.20;99.90;;;;;;5061695;28;20376;-70
2022/10/26 01:30:29;;;;;;;;;;;10.30;99.90;;;;;;5046067;28;19925;-70
2022/10/26 01:33:11;;;;;;;;;;;10.20;99.90;;;;;;5064968;28;19924;-69
2022/10/26 01:35:57;;;;;;;;;;;10.20;99.90;;;;;;5046870;28;20445;-70
2022/10/26 01:38:23;;;;;;;;;;;10.20;99.90;;;;;;5018793;28;19928;-70
2022/10/26 01:40:54;;;;;;;;;;;10.30;99.90;;;;;;5063216;28;19921;-70
2022/10/26 01:43:21;;;;;;;;;;;10.10;99.90;;;;;;5048152;28;19978;-70
2022/10/26 01:45:47;;;;;;;;;;;10.10;99.90;;;;;;5064764;28;19916;-70
2022/10/26 01:48:15;;;;;;;;;;;10.10;99.90;;;;;;5043591;28;19944;-70
2022/10/26 01:50:42;;;;;;;;;;;10.10;99.90;;;;;;5045046;28;19928;-70
2022/10/26 01:53:10;;;;;;;;;;;10.10;99.90;;;;;;5063880;28;19920;-70
2022/10/26 01:55:41;;;;;;;;;;;10.20;99.90;;;;;;5061792;28;19955;-70
2022/10/26 01:58:27;;;;;;;;;;;10.00;99.90;;;;;;5045626;28;20008;-70
2022/10/26 02:01:06;;;;;;;;;;;10.00;99.90;;;;;;5045593;28;19921;-70
2022/10/26 02:03:40;;;;;;;;;;;10.00;99.90;;;;;;5046286;28;19929;-70
2022/10/26 02:06:13;;;;;;;;;;;9.90;99.90;;;;;;5061671;28;20374;-70
2022/10/26 02:08:48;;;;;;;;;;;9.80;99.90;;;;;;5044546;28;19921;-70
2022/10/26 02:11:32;;;;;;;;;;;9.80;99.90;;;;;;5060718;28;19921;-70
2022/10/26 02:14:11;;;;;;;;;;;9.70;99.90;;;;;;5064359;28;20007;-70
2022/10/26 02:16:37;;;;;;;;;;;9.70;99.90;;;;;;5046223;28;19929;-70
2022/10/26 02:19:23;;;;;;;;;;;9.70;99.90;;;;;;5061769;28;19920;-70
2022/10/26 02:21:51;;;;;;;;;;;9.70;99.90;;;;;;5064064;28;19920;-70
2022/10/26 02:24:18;;;;;;;;;;;10.00;99.90;;;;;;5060239;28;19944;-70
2022/10/26 02:26:46;;;;;;;;;;;9.70;99.90;;;;;;5063869;28;19920;-69
2022/10/26 02:29:14;;;;;;;;;;;9.70;99.90;;;;;;5042986;28;19927;-69
2022/10/26 02:31:41;;;;;;;;;;;9.70;99.90;;;;;;5059832;28;20012;-69
2022/10/26 02:34:08;;;;;;;;;;;9.60;99.90;;;;;;5045608;28;19968;-69
2022/10/26 02:36:35;;;;;;;;;;;9.60;99.90;;;;;;5060791;28;19932;-69
2022/10/26 02:39:03;;;;;;;;;;;9.50;99.90;;;;;;5049317;28;19935;-69
2022/10/26 02:41:32;;;;;;;;;;;9.50;99.90;;;;;;5061149;28;19920;-70
2022/10/26 02:44:04;;;;;;;;;;;9.50;99.90;;;;;;5062093;28;19927;-70
2022/10/26 02:46:30;;;;;;;;;;;9.50;99.90;;;;;;5060398;28;19920;-70
2022/10/26 02:48:56;;;;;;;;;;;9.50;99.90;;;;;;5046301;28;19917;-69
2022/10/26 02:51:37;;;;;;;;;;;9.60;99.90;;;;;;5060804;28;19920;-69
2022/10/26 02:54:09;;;;;;;;;;;9.50;99.90;;;;;;5060563;28;19920;-69
2022/10/26 02:56:42;;;;;;;;;;;9.50;99.90;;;;;;5062731;28;19921;-69
2022/10/26 02:59:10;;;;;;;;;;;9.40;99.90;;;;;;5063778;28;20400;-69
2022/10/26 03:01:35;;;;;;;;;;;9.40;99.90;;;;;;5063159;28;19920;-69
2022/10/26 03:04:01;;;;;;;;;;;9.50;99.90;;;;;;5062753;28;20280;-70
2022/10/26 03:06:26;;;;;;;;;;;9.40;99.90;;;;;;5061798;28;20414;-69
2022/10/26 03:08:55;;;;;;;;;;;9.40;99.90;;;;;;5046847;28;19921;-69
2022/10/26 03:11:23;;;;;;;;;;;9.40;99.90;;;;;;5060751;28;19921;-69
2022/10/26 03:13:49;;;;;;;;;;;9.50;99.90;;;;;;5061116;28;20011;-69
2022/10/26 03:16:14;;;;;;;;;;;9.50;99.90;;;;;;5044760;28;19924;-69
2022/10/26 03:18:40;;;;;;;;;;;9.50;99.90;;;;;;5043136;28;19936;-69
2022/10/26 03:21:05;;;;;;;;;;;9.50;99.90;;;;;;5049304;28;19970;-70
2022/10/26 03:23:31;;;;;;;;;;;9.50;99.90;;;;;;5063633;28;19921;-69
2022/10/26 03:25:57;;;;;;;;;;;9.60;99.90;;;;;;5048641;28;19921;-70
2022/10/26 03:28:25;;;;;;;;;;;9.90;99.90;;;;;;5046190;28;19920;-70
2022/10/26 03:30:57;;;;;;;;;;;9.60;99.90;;;;;;5067165;28;20003;-70
2022/10/26 03:33:26;;;;;;;;;;;9.60;99.90;;;;;;5049213;28;19998;-70
2022/10/26 03:35:58;;;;;;;;;;;9.60;99.90;;;;;;5067231;28;19921;-70
2022/10/26 03:38:23;;;;;;;;;;;9.70;99.90;;;;;;5045527;28;19928;-71
2022/10/26 03:40:49;;;;;;;;;;;9.70;99.90;;;;;;5047979;28;19921;-71
2022/10/26 03:43:14;;;;;;;;;;;9.70;99.90;;;;;;5065004;28;20399;-72
2022/10/26 03:45:40;;;;;;;;;;;9.70;99.90;;;;;;5066838;28;20588;-71
2022/10/26 03:48:08;;;;;;;;;;;9.80;99.90;;;;;;5066383;28;20421;-70
2022/10/26 03:50:34;;;;;;;;;;;9.80;99.90;;;;;;5063089;28;20011;-70
2022/10/26 03:52:59;;;;;;;;;;;9.80;99.90;;;;;;5048439;28;20066;-74
2022/10/26 03:55:25;;;;;;;;;;;9.80;99.90;;;;;;5065926;28;19927;-71
2022/10/26 03:57:50;;;;;;;;;;;10.10;99.90;;;;;;5045350;28;20003;-71
2022/10/26 04:00:16;;;;;;;;;;;9.90;99.90;;;;;;5062669;28;20464;-69
2022/10/26 04:02:42;;;;;;;;;;;10.00;99.90;;;;;;5046633;28;19927;-70
2022/10/26 04:05:11;;;;;;;;;;;10.00;99.90;;;;;;5048157;28;19916;-69
2022/10/26 04:07:36;;;;;;;;;;;10.20;99.90;;;;;;5068840;28;19932;-70
2022/10/26 04:10:03;;;;;;;;;;;10.30;99.90;;;;;;5050408;28;19920;-70
2022/10/26 04:12:28;;;;;;;;;;;10.30;99.90;;;;;;5062599;28;19966;-70
2022/10/26 04:14:56;;;;;;;;;;;10.30;99.90;;;;;;5066361;28;19917;-70
2022/10/26 04:17:22;;;;;;;;;;;10.30;99.90;;;;;;5044213;28;19921;-71
2022/10/26 04:19:48;;;;;;;;;;;10.30;99.90;;;;;;5066148;28;19947;-70
2022/10/26 04:22:13;;;;;;;;;;;10.30;99.90;;;;;;5062326;28;20003;-71
2022/10/26 04:24:39;;;;;;;;;;;10.30;99.90;;;;;;5045934;28;20487;-70
2022/10/26 04:27:04;;;;;;;;;;;10.40;99.90;;;;;;5067110;28;19920;-72
2022/10/26 04:29:30;;;;;;;;;;;10.30;99.90;;;;;;5062051;28;20354;-70
2022/10/26 04:31:55;;;;;;;;;;;10.30;99.90;;;;;;5047072;28;19924;-70
2022/10/26 04:34:21;;;;;;;;;;;10.90;99.90;;;;;;5061948;28;19931;-70
2022/10/26 04:36:46;;;;;;;;;;;10.30;99.90;;;;;;5051418;28;19956;-70
2022/10/26 04:39:12;;;;;;;;;;;11.20;99.90;;;;;;5063031;28;19940;-70
2022/10/26 04:41:37;;;;;;;;;;;10.30;99.90;;;;;;5065541;28;19921;-71
2022/10/26 04:44:03;;;;;;;;;;;10.30;99.90;;;;;;5065311;28;19924;-70
2022/10/26 04:46:29;;;;;;;;;;;10.30;99.90;;;;;;5063030;28;19921;-70
2022/10/26 04:48:57;;;;;;;;;;;10.30;99.90;;;;;;5064869;28;20395;-68
2022/10/26 04:51:26;;;;;;;;;;;10.30;99.90;;;;;;5047276;28;19978;-68
2022/10/26 04:53:54;;;;;;;;;;;10.40;99.90;;;;;;5047496;28;19924;-69
2022/10/26 04:56:20;;;;;;;;;;;10.50;99.90;;;;;;5060541;28;19935;-68
2022/10/26 04:58:46;;;;;;;;;;;10.60;99.90;;;;;;5065625;28;19916;-69
2022/10/26 05:01:11;;;;;;;;;;;10.50;99.90;;;;;;5047091;28;19920;-70
2022/10/26 05:03:37;;;;;;;;;;;10.50;99.90;;;;;;5044188;28;20296;-69
2022/10/26 05:06:05;;;;;;;;;;;10.60;99.90;;;;;;5045611;28;19921;-68
2022/10/26 05:08:30;;;;;;;;;;;10.50;99.90;;;;;;5045280;28;19925;-68
2022/10/26 05:10:56;;;;;;;;;;;10.60;99.90;;;;;;5048504;28;19920;-69
2022/10/26 05:13:22;;;;;;;;;;;10.60;99.90;;;;;;5045792;28;19932;-69
2022/10/26 05:15:47;;;;;;;;;;;10.50;99.90;;;;;;5044067;28;19975;-72
2022/10/26 05:18:13;;;;;;;;;;;10.60;99.90;;;;;;5046720;28;19921;-66
2022/10/26 05:20:38;;;;;;;;;;;10.50;99.90;;;;;;5064434;28;19920;-68
2022/10/26 05:23:09;;;;;;;;;;;10.60;99.90;;;;;;5044552;28;19924;-68
2022/10/26 05:25:35;;;;;;;;;;;10.50;99.90;;;;;;5062970;28;19928;-69
2022/10/26 05:28:03;;;;;;;;;;;10.50;99.90;;;;;;5064342;28;19932;-70
2022/10/26 05:30:28;;;;;;;;;;;10.50;99.90;;;;;;5063529;28;19963;-70
2022/10/26 05:32:57;;;;;;;;;;;10.60;99.90;;;;;;5046997;28;19960;-70
2022/10/26 05:35:24;;;;;;;;;;;10.50;99.90;;;;;;5044179;28;20028;-70
2022/10/26 05:37:50;;;;;;;;;;;10.50;99.90;;;;;;5045918;28;19920;-68
2022/10/26 05:40:19;;;;;;;;;;;10.60;99.90;;;;;;5061144;28;19928;-71
2022/10/26 05:42:44;;;;;;;;;;;10.50;99.90;;;;;;5046404;28;19974;-70
2022/10/26 05:45:10;;;;;;;;;;;10.60;99.90;;;;;;5060788;28;19921;-71
2022/10/26 05:47:40;;;;;;;;;;;10.60;99.90;;;;;;5044783;28;19920;-71
2022/10/26 05:50:06;;;;;;;;;;;10.60;99.90;;;;;;5045303;28;19928;-72
2022/10/26 05:52:37;;;;;;;;;;;10.60;99.90;;;;;;5042022;28;19924;-71
2022/10/26 05:55:02;;;;;;;;;;;10.60;99.90;;;;;;5063177;28;19965;-72
2022/10/26 05:57:28;;;;;;;;;;;10.60;99.90;;;;;;5063497;28;19920;-71
2022/10/26 05:59:54;;;;;;;;;;;10.60;99.90;;;;;;5043603;28;20019;-71
2022/10/26 06:02:22;;;;;;;;;;;10.60;99.90;;;;;;5042737;28;20015;-71
2022/10/26 06:04:49;;;;;;;;;;;10.60;99.90;;;;;;5043293;28;19975;-75
2022/10/26 06:07:21;;;;;;;;;;;10.60;99.90;;;;;;5045182;28;20368;-76
2022/10/26 06:09:47;;;;;;;;;;;10.60;99.90;;;;;;5062481;28;19920;-75
2022/10/26 06:12:13;;;;;;;;;;;10.70;99.90;;;;;;5042322;28;19921;-77
2022/10/26 06:14:41;;;;;;;;;;;10.70;99.90;;;;;;5044496;28;19920;-72
2022/10/26 06:17:25;;;;;;;;;;;10.70;99.90;;;;;;5043478;28;19920;-74
2022/10/26 06:20:03;;;;;;;;;;;10.70;99.90;;;;;;5060974;28;19944;-74
2022/10/26 06:22:51;;;;;;;;;;;10.70;99.90;;;;;;5044476;28;19927;-75
2022/10/26 06:25:23;;;;;;;;;;;10.70;99.90;;;;;;5046964;28;20380;-72
2022/10/26 06:28:11;;;;;;;;;;;10.80;99.90;;;;;;5043543;28;20376;-73
2022/10/26 06:30:38;;;;;;;;;;;10.60;99.90;;;;;;5061373;28;19924;-72
2022/10/26 06:33:04;;;;;;;;;;;10.60;99.90;;;;;;5065362;28;20341;-72
2022/10/26 06:35:41;;;;;;;;;;;10.70;99.90;;;;;;5061278;28;19920;-72
2022/10/26 06:38:10;;;;;;;;;;;10.60;99.90;;;;;;5041519;28;19994;-72
2022/10/26 06:40:37;;;;;;;;;;;10.60;99.90;;;;;;5044417;28;20430;-72
2022/10/26 06:43:02;;;;;;;;;;;10.60;99.90;;;;;;5057877;28;19921;-72
2022/10/26 06:45:28;;;;;;;;;;;10.70;99.90;;;;;;5067067;28;19920;-72
2022/10/26 06:47:58;;;;;;;;;;;10.60;99.90;;;;;;5060623;28;20288;-72
2022/10/26 06:50:36;;;;;;;;;;;11.00;99.90;;;;;;5060836;28;19927;-72
2022/10/26 06:53:05;;;;;;;;;;;10.60;99.90;;;;;;5041350;28;19925;-72
2022/10/26 06:55:40;;;;;;;;;;;10.70;99.90;;;;;;5043723;28;19921;-72
2022/10/26 06:58:07;;;;;;;;;;;10.80;99.90;;;;;;5062777;28;19920;-71
2022/10/26 07:00:33;;;;;;;;;;;10.80;99.90;;;;;;5045299;28;20360;-72
2022/10/26 07:03:01;;;;;;;;;;;10.90;99.90;;;;;;5041344;28;19921;-72
2022/10/26 07:05:30;;;;;;;;;;;10.90;99.90;;;;;;5062509;28;20458;-72
2022/10/26 07:07:55;;;;;;;;;;;11.10;99.90;;;;;;5042164;28;20019;-72
2022/10/26 07:10:21;;;;;;;;;;;11.00;99.90;;;;;;5047818;28;19920;-72
2022/10/26 07:12:46;;;;;;;;;;;10.90;99.90;;;;;;5042881;28;19975;-72
2022/10/26 07:15:12;;;;;;;;;;;11.20;99.90;;;;;;5044084;28;19924;-71
2022/10/26 07:17:44;;;;;;;;;;;11.10;99.90;;;;;;5061071;28;20369;-71
2022/10/26 07:20:10;;;;;;;;;;;11.20;99.90;;;;;;5047012;28;20011;-71
2022/10/26 07:22:36;;;;;;;;;;;11.20;99.90;;;;;;5043637;28;20018;-72
2022/10/26 07:25:06;;;;;;;;;;;11.20;99.90;;;;;;5060690;28;19920;-71
2022/10/26 07:27:32;;;;;;;;;;;11.30;99.90;;;;;;5043711;28;19966;-72
2022/10/26 07:29:58;;;;;;;;;;;11.50;99.90;;;;;;5048323;28;19921;-72
2022/10/26 07:32:23;;;;;;;;;;;11.40;99.90;;;;;;5046470;28;19928;-72
2022/10/26 07:34:49;;;;;;;;;;;11.40;99.90;;;;;;5043587;28;19921;-72
2022/10/26 07:37:14;;;;;;;;;;;11.60;99.90;;;;;;5044739;28;19916;-72
2022/10/26 07:39:40;;;;;;;;;;;11.70;99.90;;;;;;5044140;28;20287;-72
2022/10/26 07:42:05;;;;;;;;;;;11.80;99.90;;;;;;5064411;28;20372;-72
2022/10/26 07:44:31;;;;;;;;;;;11.90;99.90;;;;;;5042512;28;19931;-72
2022/10/26 07:46:57;;;;;;;;;;;11.90;99.90;;;;;;5043991;28;19974;-72
2022/10/26 07:49:22;;;;;;;;;;;12.10;99.90;;;;;;5041661;28;19925;-72
2022/10/26 07:51:48;;;;;;;;;;;12.20;99.90;;;;;;5062556;28;19921;-73
2022/10/26 07:54:13;;;;;;;;;;;12.20;99.90;;;;;;5061629;28;20331;-73
2022/10/26 07:56:39;;;;;;;;;;;12.40;99.90;;;;;;5066299;28;20314;-73
2022/10/26 07:59:04;;;;;;;;;;;12.70;99.90;;;;;;5060948;28;20291;-73
2022/10/26 08:01:30;;;;;;;;;;;12.80;99.90;;;;;;5042229;28;20292;-72
2022/10/26 08:03:56;;;;;;;;;;;13.00;99.90;;;;;;5044121;28;19921;-73
2022/10/26 08:06:21;;;;;;;;;;;13.50;99.90;;;;;;5044968;28;20530;-72
2022/10/26 08:08:47;;;;;;;;;;;14.50;99.90;;;;;;5062950;28;19963;-73
2022/10/26 08:11:13;;;;;;;;;;;15.40;99.90;;;;;;5048847;28;19981;-73
2022/10/26 08:13:38;;;;;;;;;;;16.30;99.90;;;;;;5047301;28;19966;-73
2022/10/26 08:16:04;;;;;;;;;;;17.00;99.90;;;;;;5045758;28;20437;-73
2022/10/26 08:18:30;;;;;;;;;;;17.50;99.90;;;;;;5046299;28;19967;-74
2022/10/26 08:21:00;;;;;;;;;;;17.90;99.90;;;;;;5046409;28;19982;-73
2022/10/26 08:23:28;;;;;;;;;;;18.10;99.90;;;;;;5067542;28;19927;-73
2022/10/26 08:26:01;;;;;;;;;;;18.20;99.90;;;;;;5047270;28;19946;-73
2022/10/26 08:28:27;;;;;;;;;;;18.40;99.90;;;;;;5063375;28;19927;-73
2022/10/26 08:30:53;;;;;;;;;;;18.80;99.90;;;;;;5064638;28;19920;-73
2022/10/26 08:33:18;;;;;;;;;;;19.30;99.90;;;;;;5048260;28;20372;-73
2022/10/26 08:35:44;;;;;;;;;;;19.70;99.90;;;;;;5050928;28;20362;-73
2022/10/26 08:38:09;;;;;;;;;;;19.90;99.90;;;;;;5045049;28;19917;-73
2022/10/26 08:40:37;;;;;;;;;;;20.20;99.90;;;;;;5065512;28;19928;-73
2022/10/26 08:43:11;;;;;;;;;;;20.60;99.90;;;;;;5048313;28;19929;-73
2022/10/26 08:45:39;;;;;;;;;;;20.40;99.90;;;;;;5070319;28;20007;-72
2022/10/26 08:48:09;;;;;;;;;;;20.10;99.90;;;;;;5066081;28;19917;-73
2022/10/26 08:50:38;;;;;;;;;;;20.40;99.90;;;;;;5046930;28;20624;-73
2022/10/26 08:53:12;;;;;;;;;;;20.80;99.90;;;;;;5044665;28;19927;-73
2022/10/26 08:55:46;;;;;;;;;;;21.10;99.90;;;;;;5061124;28;19927;-73
2022/10/26 08:58:16;;;;;;;;;;;21.20;99.90;;;;;;5062159;28;19924;-73
2022/10/26 09:00:42;;;;;;;;;;;21.60;99.90;;;;;;5068554;28;19932;-73
2022/10/26 09:03:14;;;;;;;;;;;22.00;99.90;;;;;;5061918;28;19920;-73
2022/10/26 09:06:00;;;;;;;;;;;21.40;99.90;;;;;;5043694;28;19925;-73
2022/10/26 09:08:35;;;;;;;;;;;20.70;99.90;;;;;;5027326;28;19920;-73
2022/10/26 09:11:21;;;;;;;;;;;20.10;99.90;;;;;;5046982;28;20384;-72
2022/10/26 09:14:08;;;;;;;;;;;19.60;99.90;;;;;;5044440;28;20011;-72
2022/10/26 09:16:49;;;;;;;;;;;19.50;99.90;;;;;;5042747;28;20364;-72
2022/10/26 09:19:24;;;;;;;;;;;20.20;99.90;;;;;;5046935;28;19920;-72
2022/10/26 09:22:08;;;;;;;;;;;20.80;99.90;;;;;;5045737;28;19921;-72
2022/10/26 09:24:38;;;;;;;;;;;21.30;99.90;;;;;;5042708;28;20011;-72
2022/10/26 09:27:22;;;;;;;;;;;22.20;99.90;;;;;;5061220;28;19924;-73
2022/10/26 09:29:48;;;;;;;;;;;22.60;99.90;;;;;;5049316;28;19970;-72
2022/10/26 09:32:17;;;;;;;;;;;23.00;99.40;;;;;;5063018;28;20016;-73
2022/10/26 09:34:50;;;;;;;;;;;23.40;98.10;;;;;;5044250;28;19958;-73
2022/10/26 09:37:20;;;;;;;;;;;23.20;98.10;;;;;;5044269;28;19924;-72
2022/10/26 09:40:06;;;;;;;;;;;22.90;98.70;;;;;;5047120;28;19965;-72
2022/10/26 09:42:41;;;;;;;;;;;23.10;98.20;;;;;;5043149;28;20098;-73
2022/10/26 09:45:15;;;;;;;;;;;23.20;98.20;;;;;;5061340;28;19920;-73
2022/10/26 09:47:43;;;;;;;;;;;23.30;98.30;;;;;;5045189;28;19924;-73
2022/10/26 09:50:28;;;;;;;;;;;23.00;98.60;;;;;;5047402;28;19921;-73
2022/10/26 09:52:54;;;;;;;;;;;22.40;98.70;;;;;;5063213;28;20273;-72
2022/10/26 09:55:22;;;;;;;;;;;21.20;99.80;;;;;;5062836;28;19974;-72
2022/10/26 09:57:50;;;;;;;;;;;20.30;99.90;;;;;;5043665;28;19921;-71
2022/10/26 10:00:18;;;;;;;;;;;19.60;99.90;;;;;;5065546;28;19924;-72
2022/10/26 10:02:45;;;;;;;;;;;19.20;99.90;;;;;;5064050;28;19921;-72
2022/10/26 10:05:24;;;;;;;;;;;18.80;99.90;;;;;;5044775;28;19924;-72
2022/10/26 10:07:49;;;;;;;;;;;19.30;99.90;;;;;;5063625;28;19995;-71
2022/10/26 10:10:16;;;;;;;;;;;19.70;99.90;;;;;;5064982;28;20020;-74
2022/10/26 10:12:46;;;;;;;;;;;19.80;99.90;;;;;;5061573;28;19920;-72
2022/10/26 10:15:16;;;;;;;;;;;19.70;99.90;;;;;;5049846;28;20015;-73
2022/10/26 10:17:47;;;;;;;;;;;19.90;99.90;;;;;;5062774;28;20023;-73
2022/10/26 10:20:20;;;;;;;;;;;20.00;99.90;;;;;;5061450;28;19928;-72
2022/10/26 10:22:59;;;;;;;;;;;19.60;99.90;;;;;;5063415;28;19928;-71
2022/10/26 10:25:35;;;;;;;;;;;19.40;99.90;;;;;;5059941;28;19928;-71
2022/10/26 10:28:01;;;;;;;;;;;18.90;99.90;;;;;;5043438;28;20411;-72
2022/10/26 10:30:29;;;;;;;;;;;18.40;99.90;;;;;;5044792;28;19927;-71
2022/10/26 10:33:05;;;;;;;;;;;18.30;99.90;;;;;;5063763;28;20311;-71
2022/10/26 10:35:30;;;;;;;;;;;18.30;99.90;;;;;;5042763;28;19921;-72
2022/10/26 10:37:56;;;;;;;;;;;18.10;99.90;;;;;;5045191;28;20286;-74
2022/10/26 10:40:24;;;;;;;;;;;18.00;99.90;;;;;;5044592;28;19927;-71
2022/10/26 10:42:50;;;;;;;;;;;18.70;99.90;;;;;;5059953;28;20365;-71
2022/10/26 10:45:20;;;;;;;;;;;19.20;99.90;;;;;;5066876;28;19924;-71
2022/10/26 10:48:03;;;;;;;;;;;19.70;99.90;;;;;;5063345;28;19971;-71
2022/10/26 10:50:32;;;;;;;;;;;20.30;99.90;;;;;;5061402;28;19924;-72
2022/10/26 10:53:30;;;;;;;;;;;21.10;99.90;;;;;;5062811;28;19921;-71
2022/10/26 10:55:56;;;;;;;;;;;22.00;99.90;;;;;;5016894;28;20078;-72
2022/10/26 10:58:26;;;;;;;;;;;22.70;99.90;;;;;;5059635;28;20462;-71
2022/10/26 11:00:52;;;;;;;;;;;23.30;99.90;;;;;;5063125;28;19939;-71
2022/10/26 11:03:30;;;;;;;;;;;23.30;99.90;;;;;;5061755;28;19929;-70
2022/10/26 11:06:14;;;;;;;;;;;23.40;99.30;;;;;;5042763;28;19943;-70
2022/10/26 11:08:52;;;;;;;;;;;23.70;99.30;;;;;;5059403;28;19927;-72
2022/10/26 11:11:21;;;;;;;;;;;23.60;99.70;;;;;;5059451;28;19928;-74
2022/10/26 11:14:10;;;;;;;;;;;23.70;99.20;;;;;;5045686;28;19927;-71
2022/10/26 11:16:35;;;;;;;;;;;23.60;98.80;;;;;;5043575;28;19920;-72
2022/10/26 11:19:14;;;;;;;;;;;24.00;98.60;;;;;;5061017;28;19950;-72
2022/10/26 11:21:43;;;;;;;;;;;24.20;98.70;;;;;;5062856;28;20372;-71
2022/10/26 11:24:17;;;;;;;;;;;24.10;98.20;;;;;;5059149;28;19924;-71
2022/10/26 11:26:43;;;;;;;;;;;24.30;98.50;;;;;;5061683;28;20015;-72
2022/10/26 11:29:21;;;;;;;;;;;24.10;98.20;;;;;;5045334;28;19960;-70
2022/10/26 11:31:50;;;;;;;;;;;24.20;98.10;;;;;;5059690;28;20372;-71
2022/10/26 11:34:30;;;;;;;;;;;24.20;98.30;;;;;;5062406;28;20444;-71
2022/10/26 11:37:01;;;;;;;;;;;23.40;98.20;;;;;;5043288;28;20379;-68
2022/10/26 11:39:26;;;;;;;;;;;24.20;98.60;;;;;;5043049;28;19966;-70
2022/10/26 11:42:00;;;;;;;;;;;24.40;98.80;;;;;;5046536;28;20351;-72
2022/10/26 11:44:55;;;;;;;;;;;24.60;97.80;;;;;;5065690;28;19921;-70
2022/10/26 11:47:27;;;;;;;;;;;24.40;97.50;;;;;;4995884;28;20011;-71
2022/10/26 11:50:31;;;;;;;;;;;24.20;98.10;;;;;;5047111;28;19927;-71
2022/10/26 11:53:03;;;;;;;;;;;23.30;99.00;;;;;;4968975;28;19921;-69
2022/10/26 11:55:28;;;;;;;;;;;21.80;99.90;;;;;;4984453;28;19922;-70
2022/10/26 11:57:54;;;;;;;;;;;21.20;99.90;;;;;;5024177;28;19927;-69
2022/10/26 12:00:20;;;;;;;;;;;20.30;99.90;;;;;;5064352;28;19917;-70
2022/10/26 12:02:48;;;;;;;;;;;20.20;99.90;;;;;;5065690;28;19927;-70
2022/10/26 12:05:14;;;;;;;;;;;20.40;99.90;;;;;;5066189;28;19924;-71
2022/10/26 12:07:40;;;;;;;;;;;21.30;99.90;;;;;;5045676;28;19966;-70
2022/10/26 12:10:09;;;;;;;;;;;21.80;99.90;;;;;;5049263;28;19920;-70
2022/10/26 12:12:39;;;;;;;;;;;22.40;99.90;;;;;;5044597;28;19928;-70
2022/10/26 12:15:16;;;;;;;;;;;22.90;99.90;;;;;;5062472;28;20044;-70
2022/10/26 12:17:50;;;;;;;;;;;23.40;99.90;;;;;;5063492;28;19925;-70
2022/10/26 12:20:35;;;;;;;;;;;23.70;99.90;;;;;;5047684;28;20035;-70
2022/10/26 12:23:02;;;;;;;;;;;23.80;99.90;;;;;;5062016;28;19931;-70
2022/10/26 12:25:28;;;;;;;;;;;23.80;99.90;;;;;;5065371;28;20007;-71
2022/10/26 12:27:55;;;;;;;;;;;23.90;99.90;;;;;;5044818;28;20058;-70
2022/10/26 12:30:20;;;;;;;;;;;24.00;99.80;;;;;;5064070;28;19927;-70
2022/10/26 12:32:47;;;;;;;;;;;24.00;99.90;;;;;;5046044;28;19924;-70
2022/10/26 12:35:27;;;;;;;;;;;24.10;99.90;;;;;;5078556;28;19987;-70
2022/10/26 12:37:53;;;;;;;;;;;24.10;99.70;;;;;;5045134;28;19925;-70
2022/10/26 12:40:39;;;;;;;;;;;24.00;99.70;;;;;;5063881;28;19931;-70
2022/10/26 12:43:14;;;;;;;;;;;24.40;99.60;;;;;;5064118;28;20273;-70
2022/10/26 12:45:40;;;;;;;;;;;24.30;99.70;;;;;;5064599;28;19920;-70
2022/10/26 12:48:20;;;;;;;;;;;24.10;99.50;;;;;;5062524;28;19975;-70
2022/10/26 12:50:45;;;;;;;;;;;24.30;99.60;;;;;;5063730;28;19966;-70
2022/10/26 12:53:16;;;;;;;;;;;23.70;99.90;;;;;;5066364;28;19920;-70
2022/10/26 12:55:44;;;;;;;;;;;23.50;99.90;;;;;;5062331;28;19920;-71
2022/10/26 12:58:10;;;;;;;;;;;23.30;99.90;;;;;;5063555;28;19920;-69
2022/10/26 13:00:38;;;;;;;;;;;22.50;99.90;;;;;;5046579;28;20295;-71
2022/10/26 13:03:24;;;;;;;;;;;22.30;99.90;;;;;;5047458;28;19920;-70
2022/10/26 13:05:55;;;;;;;;;;;21.90;99.90;;;;;;5046530;28;20014;-70
2022/10/26 13:08:21;;;;;;;;;;;21.50;99.90;;;;;;5061767;28;20264;-71
2022/10/26 13:11:00;;;;;;;;;;;21.20;99.90;;;;;;5064187;28;19924;-70
2022/10/26 13:13:30;;;;;;;;;;;20.40;99.90;;;;;;5047044;28;19920;-71
2022/10/26 13:15:56;;;;;;;;;;;19.90;99.90;;;;;;5046657;28;19956;-71
2022/10/26 13:18:22;;;;;;;;;;;19.70;99.90;;;;;;5043557;28;19925;-71
2022/10/26 13:21:07;;;;;;;;;;;19.20;99.90;;;;;;5064739;28;20260;-70
2022/10/26 13:23:34;;;;;;;;;;;19.10;99.90;;;;;;5043929;28;19921;-71
2022/10/26 13:26:02;;;;;;;;;;;19.00;99.90;;;;;;5046250;28;19943;-72
2022/10/26 13:28:30;;;;;;;;;;;19.00;99.90;;;;;;5047192;28;19928;-71
2022/10/26 13:30:55;;;;;;;;;;;19.30;99.90;;;;;;5060952;28;19931;-71
2022/10/26 13:33:23;;;;;;;;;;;19.30;99.90;;;;;;5064736;28;19928;-71
2022/10/26 13:35:53;;;;;;;;;;;19.40;99.90;;;;;;5043516;28;19921;-72
2022/10/26 13:38:24;;;;;;;;;;;19.40;99.90;;;;;;5059972;28;20399;-71
2022/10/26 13:40:51;;;;;;;;;;;19.40;99.90;;;;;;5061129;28;20277;-71
2022/10/26 13:43:22;;;;;;;;;;;19.50;99.90;;;;;;5045971;28;19974;-71
2022/10/26 13:45:52;;;;;;;;;;;19.40;99.90;;;;;;5060729;28;20062;-71
2022/10/26 13:48:29;;;;;;;;;;;19.30;99.90;;;;;;5050535;28;19921;-70
2022/10/26 13:50:56;;;;;;;;;;;19.40;99.90;;;;;;5061090;28;19974;-71
2022/10/26 13:53:27;;;;;;;;;;;19.20;99.90;;;;;;5063795;28;19921;-71
2022/10/26 13:55:57;;;;;;;;;;;19.30;99.90;;;;;;5062669;28;19920;-69
2022/10/26 13:58:42;;;;;;;;;;;19.30;99.90;;;;;;5061430;28;19917;-71
2022/10/26 14:01:24;;;;;;;;;;;19.20;99.90;;;;;;5061578;28;19955;-69
2022/10/26 14:03:49;;;;;;;;;;;19.00;99.90;;;;;;5059901;28;20835;-69
2022/10/26 14:06:21;;;;;;;;;;;18.90;99.90;;;;;;5045489;28;20019;-69
2022/10/26 14:08:48;;;;;;;;;;;18.90;99.90;;;;;;5046362;28;19935;-71
2022/10/26 14:11:15;;;;;;;;;;;18.90;99.90;;;;;;5061097;28;19925;-71
2022/10/26 14:13:41;;;;;;;;;;;18.80;99.90;;;;;;5045411;28;20007;-72
2022/10/26 14:16:08;;;;;;;;;;;18.70;99.90;;;;;;5063792;28;20014;-72
2022/10/26 14:18:34;;;;;;;;;;;18.40;99.90;;;;;;5048105;28;19963;-76
2022/10/26 14:21:03;;;;;;;;;;;18.40;99.90;;;;;;5044428;28;19971;-73
2022/10/26 14:23:36;;;;;;;;;;;18.20;99.90;;;;;;5048604;28;19921;-73
2022/10/26 14:26:02;;;;;;;;;;;18.10;99.90;;;;;;5042388;28;19924;-72
2022/10/26 14:28:37;;;;;;;;;;;18.00;99.90;;;;;;5061505;28;19924;-72
2022/10/26 14:31:12;;;;;;;;;;;18.00;99.90;;;;;;5060074;28;19921;-73
2022/10/26 14:33:38;;;;;;;;;;;18.10;99.90;;;;;;5056756;28;21063;-71